Latest Weather Observations for Ballina

IDN60801

Issued at 5:02 am EDT Thursday 11 February 2016 (issued every 30 minutes, with the page automatically refreshed every 10 minutes)

About weather observations | Map of weather stations | Latest weather observations for NSW | Other Formats
Station Details ID: 058198 Name: BALLINA AIRPORT AWS Lat: -28.84 Lon: 153.56 Height: 1.3 m
Data from the previous 72 hours. | See also: Recent months at Ballina
Date/Time
EDT
Temp
°C
App
Temp
°C
Dew
Point
Rel
Hum
%
Delta-T
°C
Wind Press
QNH
hPa
Press
MSL
hPa
Rain
since 9 am
mm
Dir
 
Spd
km/h
Gust
km/h
Spd
kts
Gust
kts
11/05:00am 20.4 24.2 20.1 98 0.2 CALM 0 0 0 0 1012.4 1012.4 2.4
11/04:30am 20.5 23.2 20.2 98 0.2 W 6 7 3 4 1012.4 1012.4 2.4
11/04:00am 20.9 24.1 20.4 97 0.3 NW 4 7 2 4 1012.4 1012.4 2.4
11/03:30am 20.9 24.7 20.2 96 0.4 CALM 0 0 0 0 1012.7 1012.7 2.4
11/03:00am 21.2 24.0 20.5 96 0.5 WSW 6 7 3 4 1012.8 1012.8 2.4
11/02:30am 21.4 23.9 21.1 98 0.2 W 9 9 5 5 1013.0 1013.0 2.4
11/02:00am 21.3 24.3 20.8 97 0.3 W 6 7 3 4 1013.3 1013.3 2.4
11/01:30am 21.3 24.1 20.8 97 0.3 W 7 9 4 5 1013.4 1013.4 2.4
11/01:00am 21.3 25.0 20.8 97 0.3 W 2 6 1 3 1013.8 1013.8 2.4
11/12:30am 21.0 23.7 20.7 98 0.2 W 7 13 4 7 1014.0 1014.0 2.4
11/12:00am 20.8 22.7 20.6 99 0.1 W 11 13 6 7 1014.2 1014.2 2.4
 
Date/Time
EDT
Temp
°C
App
Temp
°C
Dew
Point
Rel
Hum
%
Delta-T
°C
Wind Press
QNH
hPa
Press
MSL
hPa
Rain
since 9 am
mm
Dir
 
Spd
km/h
Gust
km/h
Spd
kts
Gust
kts
10/11:30pm 20.6 24.1 20.4 99 0.1 SW 2 6 1 3 1014.2 1014.2 2.2
10/11:00pm 20.7 23.5 20.5 99 0.1 WSW 6 9 3 5 1014.4 1014.4 2.2
10/10:30pm 20.9 23.8 20.6 98 0.2 WNW 6 7 3 4 1014.7 1014.7 2.2
10/10:00pm 21.1 25.0 20.3 95 0.5 CALM 0 4 0 2 1014.8 1014.8 2.2
10/09:30pm 21.6 24.4 20.4 93 0.8 NE 6 9 3 5 1014.7 1014.7 2.2
10/09:00pm 21.7 24.2 20.3 92 0.9 ENE 7 11 4 6 1014.6 1014.6 2.2
10/08:30pm 21.8 23.2 20.3 91 1.0 ENE 13 19 7 10 1014.5 1014.5 2.2
10/08:00pm 22.3 22.3 19.8 86 1.6 ESE 19 28 10 15 1014.3 1014.3 2.2
10/07:30pm 23.2 23.1 19.6 80 2.3 SE 19 28 10 15 1013.9 1013.9 2.2
10/07:00pm 23.5 23.0 19.0 76 2.9 ESE 20 33 11 18 1013.5 1013.5 2.2
10/06:30pm 23.2 23.2 20.2 83 1.9 SE 20 35 11 19 1013.3 1013.3 2.2
10/06:00pm 23.7 23.1 20.6 83 2.0 SE 24 33 13 18 1013.2 1013.2 2.2
10/05:30pm 24.4 24.7 20.5 79 2.5 SSE 19 26 10 14 1013.0 1013.0 2.2
10/05:00pm 23.5 23.2 20.4 83 2.0 SSE 22 30 12 16 1013.1 1013.1 2.2
10/04:30pm 23.8 23.1 19.5 77 2.8 SSE 22 33 12 18 1013.0 1013.0 2.2
10/04:00pm 24.0 21.9 20.5 81 2.3 SSE 32 44 17 24 1013.2 1013.2 2.2
10/03:30pm 25.1 24.1 20.4 75 3.1 SSE 26 37 14 20 1013.2 1013.2 2.2
10/03:00pm 25.2 24.1 21.1 78 2.7 SSE 28 39 15 21 1013.4 1013.4 2.2
10/02:31pm 24.1 24.7 21.4 85 1.8 S 20 32 11 17 1013.7 1013.7 2.2
10/02:30pm 23.9 24.3 21.0 84 1.9 S 20 32 11 17 1013.7 1013.7 2.2
10/02:12pm 22.8 22.3 20.7 88 1.4 SSE 24 33 13 18 1013.9 1013.9 1.6
10/02:02pm 25.1 27.8 23.5 91 1.1 SSE 15 28 8 15 1013.8 1013.8 0.4
10/02:00pm 24.0 26.0 22.3 90 1.1 SSE 15 20 8 11 1013.9 1013.9 0.4
10/01:44pm 22.6 22.9 20.7 89 1.2 SSE 20 32 11 17 1014.1 1014.1 0.2
10/01:30pm 23.9 23.3 20.6 82 2.1 SSE 24 33 13 18 1014.1 1014.1 0.0
10/01:00pm 23.6 22.8 20.9 85 1.8 SE 26 35 14 19 1014.1 1014.1 0.0
10/12:30pm 26.5 26.1 20.1 68 4.2 SSE 22 32 12 17 1014.1 1014.1 0.0
10/12:00pm 26.6 25.9 19.5 65 4.6 SSE 22 30 12 16 1014.3 1014.3 0.0
10/11:30am 26.3 25.5 19.2 65 4.6 SSE 22 32 12 17 1014.4 1014.4 0.0
10/11:00am 26.1 26.0 18.8 64 4.7 SSE 17 26 9 14 1014.6 1014.6 0.0
10/10:30am 26.3 26.2 18.7 63 4.9 SSE 17 22 9 12 1014.8 1014.8 0.0
10/10:00am 24.8 26.2 19.6 73 3.3 SW 11 13 6 7 1014.9 1014.9 0.0
10/09:30am 23.7 25.2 19.8 79 2.5 WSW 11 17 6 9 1014.7 1014.7 0.0
10/09:00am 22.7 23.6 19.3 81 2.2 W 13 17 7 9 1014.6 1014.6 0.0
10/08:30am 22.4 22.4 19.0 81 2.2 W 17 20 9 11 1014.3 1014.3 0.0
10/08:00am 22.2 22.1 18.8 81 2.1 W 17 20 9 11 1014.1 1014.1 0.0
10/07:30am 22.7 23.0 18.7 78 2.5 SSW 15 26 8 14 1013.9 1013.9 0.0
10/07:00am 23.8 22.6 17.5 68 3.9 SSE 20 32 11 17 1013.5 1013.5 0.0
10/06:30am 23.5 22.7 17.9 71 3.5 SSE 19 24 10 13 1013.4 1013.4 0.0
10/06:00am 23.3 22.7 18.4 74 3.1 SSE 19 30 10 16 1013.4 1013.4 0.0
10/05:30am 22.9 23.0 18.4 76 2.8 SSE 15 22 8 12 1013.3 1013.3 0.0
10/05:00am 22.5 23.1 18.7 79 2.4 SSE 13 20 7 11 1013.3 1013.3 0.0
10/04:30am 22.7 23.2 19.3 81 2.2 S 15 22 8 12 1013.2 1013.2 0.0
10/04:00am 22.9 21.5 18.7 77 2.6 SSE 24 33 13 18 1013.3 1013.3 0.0
10/03:30am 23.0 22.3 18.3 75 2.9 SSE 19 28 10 15 1013.4 1013.4 0.0
10/03:00am 23.2 22.4 18.5 75 3.0 SSE 20 28 11 15 1013.6 1013.6 0.0
10/02:30am 23.2 22.5 18.7 76 2.8 SSE 20 28 11 15 1013.9 1013.9 0.0
10/02:00am 23.0 22.5 18.7 77 2.7 SSE 19 28 10 15 1014.4 1014.4 0.0
10/01:30am 23.0 22.2 17.9 73 3.2 SSE 19 30 10 16 1014.7 1014.7 0.0
10/01:00am 23.1 21.8 18.2 74 3.1 SSE 22 35 12 19 1014.9 1014.9 0.0
10/12:30am 23.3 22.2 18.6 75 3.0 SSE 22 32 12 17 1015.4 1015.4 0.0
10/12:00am 23.6 22.8 19.3 77 2.7 SSE 22 33 12 18 1015.9 1015.9 0.0
 
Date/Time
EDT
Temp
°C
App
Temp
°C
Dew
Point
Rel
Hum
%
Delta-T
°C
Wind Press
QNH
hPa
Press
MSL
hPa
Rain
since 9 am
mm
Dir
 
Spd
km/h
Gust
km/h
Spd
kts
Gust
kts
09/11:30pm 23.3 22.1 18.4 74 3.1 SSE 22 32 12 17 1016.4 1016.4 0.0
09/11:00pm 23.4 21.9 18.5 74 3.1 SSE 24 35 13 19 1016.7 1016.7 0.0
09/10:30pm 23.6 22.2 18.7 74 3.1 SSE 24 37 13 20 1016.9 1016.9 0.0
09/10:00pm 23.6 22.4 18.3 72 3.3 SSE 22 33 12 18 1016.8 1016.8 0.0
09/09:30pm 23.5 21.8 18.2 72 3.3 SSE 24 33 13 18 1016.6 1016.6 0.0
09/09:00pm 23.7 22.3 18.8 74 3.1 SSE 24 35 13 19 1016.6 1016.6 0.0
09/08:30pm 23.8 21.8 18.2 71 3.5 SSE 26 37 14 20 1016.4 1016.4 0.0
09/08:00pm 23.7 21.5 17.9 70 3.6 SSE 26 37 14 20 1016.3 1016.3 0.0
09/07:30pm 24.0 21.7 18.4 71 3.5 SSE 28 43 15 23 1016.2 1016.2 0.0
09/07:01pm 24.4 21.7 17.6 66 4.2 SSE 28 46 15 25 1016.0 1016.0 0.0
09/07:00pm 24.4 22.0 17.4 65 4.3 SSE 26 41 14 22 1015.9 1015.9 0.0
09/06:30pm 25.1 22.3 18.3 66 4.3 SSE 30 44 16 24 1015.8 1015.8 0.0
09/06:00pm 25.5 23.2 18.4 65 4.5 S 28 48 15 26 1015.6 1015.6 0.0
09/05:30pm 25.6 23.3 18.5 65 4.5 SSE 28 48 15 26 1015.7 1015.7 0.0
09/05:23pm 25.5 22.7 18.2 64 4.6 SSE 30 48 16 26 1015.6 1015.6 0.0
09/05:00pm 26.1 24.1 19.2 65 4.4 S 28 41 15 22 1015.5 1015.5 0.0
09/04:30pm 26.7 24.8 19.3 64 4.8 SSE 28 44 15 24 1015.7 1015.7 0.0
09/04:00pm 26.3 23.6 19.2 65 4.6 SSE 32 43 17 23 1015.7 1015.7 0.0
09/03:30pm 26.7 24.0 19.3 64 4.8 S 32 44 17 24 1015.8 1015.8 0.0
09/03:00pm 27.1 24.2 18.9 61 5.3 S 32 44 17 24 1015.9 1015.9 0.0
09/02:30pm 27.0 25.2 20.3 66 4.4 SSE 30 43 16 23 1015.9 1015.9 0.0
09/02:00pm 25.2 22.5 19.3 70 3.8 SSE 32 50 17 27 1016.2 1016.2 0.0
09/01:57pm 25.5 23.2 20.1 72 3.5 SSE 32 50 17 27 1016.2 1016.2 0.0
09/01:30pm 27.4 25.0 21.0 68 4.2 SSE 35 46 19 25 1016.3 1016.3 0.0
09/01:00pm 27.0 24.7 20.6 68 4.2 SSE 33 46 18 25 1016.3 1016.3 0.0
09/12:30pm 26.7 24.0 19.3 64 4.8 SSE 32 44 17 24 1016.5 1016.5 0.0
09/12:00pm 26.1 23.2 18.8 64 4.7 SSE 32 43 17 23 1016.7 1016.7 0.0
09/11:30am 27.1 24.0 19.7 64 4.8 SSE 35 46 19 25 1016.7 1016.7 0.0
09/11:00am 26.9 24.4 19.8 65 4.6 SSE 32 46 17 25 1016.9 1016.9 0.0
09/10:30am 26.2 23.6 19.6 67 4.3 SSE 32 44 17 24 1017.0 1017.0 0.0
09/10:00am 26.9 24.9 20.0 66 4.5 SSE 30 39 16 21 1016.9 1016.9 0.0
09/09:30am 26.1 24.3 19.5 67 4.3 SSE 28 41 15 22 1016.8 1016.8 0.0
09/09:00am 25.9 24.7 20.0 70 3.8 SSE 26 37 14 20 1016.6 1016.6 0.0
09/08:30am 25.5 23.7 19.6 70 3.8 SSE 28 35 15 19 1016.3 1016.3 0.0
09/08:00am 24.9 23.8 19.5 72 3.5 SSE 24 35 13 19 1016.0 1016.0 0.0
09/07:30am 24.1 22.7 18.7 72 3.4 SSE 24 32 13 17 1015.6 1015.6 0.0
09/07:00am 23.7 22.8 19.0 75 3.0 SSE 22 32 12 17 1015.3 1015.3 0.0
09/06:30am 23.6 22.1 18.5 73 3.2 SSE 24 39 13 21 1014.9 1014.9 0.0
09/06:00am 23.6 21.6 18.3 72 3.3 SSE 26 39 14 21 1014.6 1014.6 0.0
09/05:30am 23.5 22.6 19.0 76 2.9 SSE 22 32 12 17 1014.5 1014.5 0.0
09/05:00am 23.5 23.0 19.2 77 2.7 SSE 20 32 11 17 1014.4 1014.4 0.0
09/04:30am 23.4 22.5 19.1 77 2.7 SSE 22 32 12 17 1014.3 1014.3 0.0
09/04:00am 23.7 23.4 19.6 78 2.6 SSE 20 28 11 15 1014.3 1014.3 0.0
09/03:30am 23.2 23.0 19.4 79 2.4 SSE 19 30 10 16 1014.3 1014.3 0.0
09/03:00am 24.0 23.2 18.0 69 3.8 S 19 30 10 16 1014.5 1014.5 0.0
09/02:30am 23.8 23.4 19.3 76 2.9 SSE 20 28 11 15 1014.7 1014.7 0.0
09/02:00am 23.6 22.5 18.7 74 3.1 SSE 22 33 12 18 1014.9 1014.9 0.0
09/01:30am 23.8 23.0 18.4 72 3.4 S 20 28 11 15 1015.2 1015.2 0.0
09/01:00am 23.4 22.5 18.1 72 3.3 S 20 33 11 18 1015.7 1015.7 0.0
09/12:30am 23.8 23.1 19.5 77 2.8 SSE 22 33 12 18 1016.0 1016.0 0.0
09/12:00am 23.8 22.4 18.9 74 3.1 SSE 24 35 13 19 1016.2 1016.2 0.0
 
Date/Time
EDT
Temp
°C
App
Temp
°C
Dew
Point
Rel
Hum
%
Delta-T
°C
Wind Press
QNH
hPa
Press
MSL
hPa
Rain
since 9 am
mm
Dir
 
Spd
km/h
Gust
km/h
Spd
kts
Gust
kts
08/11:30pm 23.6 23.0 19.7 79 2.5 SSE 22 32 12 17 1016.3 1016.3 0.0
08/11:00pm 23.3 22.0 19.0 77 2.7 S 24 32 13 17 1016.5 1016.5 0.0
08/10:30pm 24.0 23.6 19.3 75 3.0 SSE 20 35 11 19 1016.5 1016.5 0.0
08/10:00pm 23.5 21.8 19.8 80 2.4 S 28 39 15 21 1016.5 1016.5 0.0
08/09:30pm 24.0 23.0 19.7 77 2.8 S 24 35 13 19 1016.2 1016.2 0.0
08/09:00pm 24.1 22.9 20.0 78 2.6 S 26 37 14 20 1015.8 1015.8 0.0
08/08:30pm 24.3 23.8 20.0 77 2.8 S 22 35 12 19 1015.4 1015.4 0.0
08/08:00pm 24.1 23.6 20.0 78 2.6 S 22 35 12 19 1015.1 1015.1 0.0
08/07:30pm 24.3 23.6 20.2 78 2.7 S 24 33 13 18 1014.7 1014.7 0.0
08/07:00pm 24.9 24.4 19.9 74 3.2 S 22 37 12 20 1014.3 1014.3 0.0
08/06:30pm 25.4 24.6 20.0 72 3.5 S 24 37 13 20 1014.0 1014.0 0.0
08/06:00pm 26.0 25.1 20.6 72 3.5 S 26 37 14 20 1014.0 1014.0 0.0
08/05:30pm 26.0 24.3 19.9 69 4.0 S 28 41 15 22 1014.1 1014.1 0.0
08/05:00pm 26.6 25.7 20.7 70 3.9 SSE 26 39 14 21 1014.1 1014.1 0.0
08/04:30pm 26.9 26.0 21.4 72 3.7 SSE 28 37 15 20 1014.3 1014.3 0.0
08/04:00pm 27.1 26.2 21.4 71 3.8 S 28 41 15 22 1014.4 1014.4 0.0
08/03:30pm 26.5 25.2 22.1 77 3.0 S 32 41 17 22 1014.5 1014.5 0.0
08/03:00pm 27.1 26.7 23.1 79 2.7 S 30 39 16 21 1014.6 1014.6 0.0
08/02:30pm 26.9 26.1 22.3 76 3.1 S 30 43 16 23 1014.8 1014.8 0.0
08/02:00pm 26.7 25.9 21.7 74 3.3 S 28 43 15 23 1015.0 1015.0 0.0
08/01:30pm 26.8 26.1 21.8 74 3.3 S 28 41 15 22 1015.2 1015.2 0.0
08/01:00pm 27.0 26.1 22.2 75 3.2 S 30 44 16 24 1015.5 1015.5 0.0
08/12:30pm 26.2 24.6 20.8 72 3.6 SSW 30 43 16 23 1015.8 1015.8 0.0
08/12:00pm 26.3 25.9 21.7 76 3.1 S 26 39 14 21 1016.0 1016.0 0.0
08/11:30am 25.9 25.5 21.6 77 2.9 SSW 26 37 14 20 1016.2 1016.2 0.0
08/11:00am 25.6 25.1 21.5 78 2.7 SSW 26 39 14 21 1016.3 1016.3 0.0
08/10:30am 25.3 24.7 21.2 78 2.7 SSW 26 35 14 19 1016.3 1016.3 0.0
08/10:00am 25.4 25.6 22.1 82 2.2 SSW 24 35 13 19 1016.1 1016.1 0.0
08/09:30am 24.3 24.2 20.8 81 2.3 SW 22 32 12 17 1015.9 1015.9 0.0
08/09:00am 23.4 24.4 21.1 87 1.5 SW 17 24 9 13 1015.8 1015.8 3.2
08/08:30am 22.8 22.9 20.3 86 1.6 SW 20 30 11 16 1015.7 1015.7 3.2
08/08:00am 21.7 22.8 20.5 93 0.8 SW 15 20 8 11 1015.6 1015.6 3.2
08/07:30am 20.3 20.7 19.8 97 0.3 WSW 17 22 9 12 1015.4 1015.4 3.2
08/07:00am 19.1 - - - - WSW 13 17 7 9 1015.1 1015.1 3.2
08/06:30am 18.1 - - - - WSW 11 15 6 8 1015.0 1015.0 3.2
08/06:00am 17.9 - - - - WSW 11 13 6 7 1014.9 1014.9 3.2
08/05:30am 18.4 19.3 18.4 100 0.0 WSW 11 15 6 8 1014.8 1014.8 3.2

Other Formats:

Comma delimited format used in spreadsheet applications
http://www.bom.gov.au/fwo/IDN60801/IDN60801.94596.axf

JavaScript Object Notation format (JSON) in row-major order
http://www.bom.gov.au/fwo/IDN60801/IDN60801.94596.json